createdAt,value
2023-01-02T00:04:52.745Z,12.20
2023-01-02T00:09:57.900Z,14.53
2023-01-02T00:15:01.419Z,10.57
2023-01-02T00:20:07.660Z,10.87
2023-01-02T00:25:12.629Z,13.17
2023-01-02T00:30:16.037Z,12.80
2023-01-02T00:35:19.551Z,18.20
2023-01-02T00:40:24.353Z,17.00
2023-01-02T00:45:27.783Z,15.53
2023-01-02T00:50:31.487Z,14.47
2023-01-02T00:55:36.220Z,13.97
2023-01-02T01:00:40.339Z,10.97
2023-01-02T01:05:44.124Z,13.90
2023-01-02T01:10:48.944Z,13.70
2023-01-02T01:15:52.426Z,15.17
2023-01-02T01:20:55.864Z,14.13
2023-01-02T01:26:00.701Z,14.40
2023-01-02T01:31:04.818Z,13.80
2023-01-02T01:36:10.477Z,14.07
2023-01-02T01:41:22.664Z,13.27
2023-01-02T01:46:31.272Z,13.13
2023-01-02T01:51:40.126Z,11.90
2023-01-02T01:56:50.379Z,13.97
2023-01-02T02:01:54.155Z,14.97
2023-01-02T02:06:57.910Z,13.97
2023-01-02T02:12:03.719Z,13.83
2023-01-02T02:17:18.354Z,16.10
2023-01-02T02:22:43.364Z,16.90
2023-01-02T02:28:21.320Z,17.23
2023-01-02T02:33:36.952Z,16.70
2023-01-02T02:38:53.312Z,16.57
2023-01-02T02:44:05.119Z,20.27
2023-01-02T02:49:21.298Z,16.20
2023-01-02T02:54:32.775Z,20.53
2023-01-02T02:59:37.952Z,15.83
2023-01-02T03:04:44.164Z,16.63
2023-01-02T03:09:56.618Z,17.60
2023-01-02T03:15:11.365Z,15.77
2023-01-02T03:20:21.066Z,15.53
2023-01-02T03:25:26.264Z,15.47
2023-01-02T03:30:34.977Z,15.23
2023-01-02T03:35:43.838Z,17.67
2023-01-02T03:40:52.252Z,16.67
2023-01-02T03:46:05.595Z,14.47
2023-01-02T03:51:11.546Z,17.20
2023-01-02T03:56:23.735Z,18.17
2023-01-02T04:01:33.864Z,21.10
2023-01-02T04:06:44.089Z,19.97
2023-01-02T04:11:51.468Z,29.63
2023-01-02T04:16:56.800Z,49.73
2023-01-02T04:22:06.793Z,33.77
2023-01-02T04:27:15.471Z,24.27
2023-01-02T04:32:22.393Z,19.93
2023-01-02T04:37:36.105Z,17.17
2023-01-02T04:42:39.505Z,15.40
2023-01-02T04:47:43.009Z,18.43
2023-01-02T04:52:47.984Z,15.33
2023-01-02T04:57:51.380Z,17.80
2023-01-02T05:02:54.838Z,19.40
2023-01-02T05:08:00.817Z,18.63
2023-01-02T05:13:04.507Z,15.53
2023-01-02T05:18:08.031Z,16.70
2023-01-02T05:23:30.964Z,16.93
2023-01-02T05:28:38.535Z,15.43
2023-01-02T05:33:42.422Z,18.00
2023-01-02T05:38:47.246Z,21.10
2023-01-02T05:43:50.741Z,17.80
2023-01-02T05:48:54.278Z,15.47
2023-01-02T05:53:59.040Z,16.77
2023-01-02T05:59:02.433Z,18.50
2023-01-02T06:04:06.120Z,14.70
2023-01-02T06:09:15.308Z,17.20
2023-01-02T06:14:18.679Z,19.93
2023-01-02T06:19:22.287Z,14.13
2023-01-02T06:24:27.508Z,13.93
2023-01-02T06:29:32.275Z,13.63
2023-01-02T06:34:35.740Z,11.77
2023-01-02T06:39:40.842Z,12.33
2023-01-02T06:44:44.296Z,11.73
2023-01-02T06:49:47.754Z,10.80
2023-01-02T06:54:52.542Z,17.10
2023-01-02T06:59:55.936Z,11.03
2023-01-02T07:04:59.324Z,12.30
2023-01-02T07:10:04.748Z,10.10
2023-01-02T07:15:08.994Z,13.10
2023-01-02T07:20:13.365Z,10.63
2023-01-02T07:25:19.547Z,9.97
2023-01-02T07:30:22.935Z,9.47
2023-01-02T07:35:26.395Z,11.00
2023-01-02T07:40:32.414Z,11.57
2023-01-02T07:45:36.196Z,11.73
2023-01-02T07:50:39.734Z,11.47
2023-01-02T07:55:44.530Z,12.80
2023-01-02T08:00:48.032Z,11.33
2023-01-02T08:05:51.693Z,11.63
2023-01-02T08:10:56.615Z,11.33
2023-01-02T08:16:00.056Z,10.53
2023-01-02T08:21:04.021Z,10.27
2023-01-02T08:26:10.372Z,12.30
2023-01-02T08:31:16.088Z,10.23
2023-01-02T08:36:19.578Z,8.67
2023-01-02T08:41:34.782Z,9.80
2023-01-02T08:46:42.504Z,10.90
2023-01-02T08:51:46.242Z,11.77
2023-01-02T08:56:52.209Z,8.90
2023-01-02T09:01:56.317Z,8.13
2023-01-02T09:06:59.900Z,7.33
2023-01-02T09:12:05.133Z,7.17
2023-01-02T09:17:08.936Z,5.90
2023-01-02T09:22:12.780Z,5.83
2023-01-02T09:27:17.620Z,6.07
2023-01-02T09:32:21.496Z,6.50
2023-01-02T09:37:24.916Z,4.57
2023-01-02T09:42:29.804Z,4.70
2023-01-02T09:47:33.415Z,6.47
2023-01-02T09:52:41.449Z,5.67
2023-01-02T09:57:52.799Z,6.90
2023-01-02T10:03:08.272Z,5.67
2023-01-02T10:08:31.407Z,5.20
2023-01-02T10:19:13.020Z,6.40
2023-01-02T10:24:21.888Z,6.50
2023-01-02T10:29:31.789Z,5.77
2023-01-02T10:34:41.334Z,6.30
2023-01-02T10:39:46.715Z,6.10
2023-01-02T10:44:51.962Z,5.65
2023-01-02T10:49:55.996Z,6.00
2023-01-02T10:55:00.945Z,5.68
2023-01-02T11:00:08.799Z,4.00
2023-01-02T11:05:22.281Z,5.73
2023-01-02T11:10:28.961Z,5.47
2023-01-02T11:15:35.544Z,4.68
2023-01-02T11:20:39.545Z,5.55
2023-01-02T11:25:44.993Z,7.32
2023-01-02T11:30:52.848Z,4.38
2023-01-02T11:35:58.117Z,5.80
2023-01-02T11:41:03.354Z,4.97
2023-01-02T11:46:17.758Z,7.77
2023-01-02T11:51:23.404Z,5.33
2023-01-02T11:56:31.936Z,5.00
2023-01-02T12:01:52.990Z,4.27
2023-01-02T12:07:12.578Z,5.03
2023-01-02T12:12:37.253Z,5.37
2023-01-02T12:17:51.383Z,4.67
2023-01-02T12:23:15.412Z,4.70
2023-01-02T12:28:51.792Z,5.77
2023-01-02T12:34:07.841Z,4.45
2023-01-02T12:39:40.364Z,5.43
2023-01-02T12:44:51.747Z,5.47
2023-01-02T12:50:12.528Z,3.70
2023-01-02T12:55:29.109Z,7.23
2023-01-02T13:00:48.503Z,3.93
2023-01-02T13:05:58.131Z,5.60
2023-01-02T13:11:06.391Z,6.85
2023-01-02T13:16:24.790Z,5.07
2023-01-02T13:21:39.594Z,4.83
2023-01-02T13:26:43.741Z,5.93
2023-01-02T13:31:50.729Z,5.53
2023-01-02T13:37:03.252Z,4.73
2023-01-02T13:42:26.104Z,9.87
2023-01-02T13:47:34.854Z,7.83
2023-01-02T13:52:41.337Z,6.17
2023-01-02T13:57:44.728Z,6.47
2023-01-02T14:03:35.354Z,6.77
2023-01-02T14:08:42.441Z,11.03
2023-01-02T14:13:49.669Z,9.67
2023-01-02T14:19:16.707Z,17.57
2023-01-02T14:24:32.343Z,10.53
2023-01-02T14:29:49.017Z,12.30
2023-01-02T14:34:59.792Z,12.37
2023-01-02T14:40:39.129Z,13.47
2023-01-02T14:45:46.285Z,13.73
2023-01-02T14:50:50.599Z,12.80
2023-01-02T14:56:00.251Z,11.03
2023-01-02T15:01:05.897Z,10.67
2023-01-02T15:06:15.698Z,8.27
2023-01-02T15:11:40.661Z,10.27
2023-01-02T15:16:50.087Z,8.40
2023-01-02T15:21:55.588Z,11.00
2023-01-02T15:27:16.209Z,8.83
2023-01-02T15:32:21.805Z,14.73
2023-01-02T15:37:25.253Z,9.77
2023-01-02T15:42:47.543Z,12.20
2023-01-02T15:47:53.024Z,12.03
2023-01-02T15:53:01.741Z,13.97
2023-01-02T15:58:25.624Z,12.23
2023-01-02T16:04:02.676Z,10.53
2023-01-02T16:09:04.086Z,11.17
2023-01-02T16:14:20.759Z,11.70
2023-01-02T16:19:31.682Z,11.67
2023-01-02T16:24:37.003Z,12.67
2023-01-02T16:29:44.901Z,14.77
2023-01-02T16:35:00.699Z,15.03
2023-01-02T16:41:00.269Z,18.47
2023-01-02T16:46:10.264Z,16.40
2023-01-02T16:51:16.635Z,22.70
2023-01-02T16:56:20.119Z,17.53
2023-01-02T17:01:25.895Z,19.77
2023-01-02T17:06:29.626Z,16.77
2023-01-02T17:11:33.194Z,12.73
2023-01-02T17:16:38.137Z,13.93
2023-01-02T17:21:41.662Z,15.37
2023-01-02T17:26:45.428Z,29.33
2023-01-02T17:31:50.303Z,17.00
2023-01-02T17:36:57.209Z,20.00
2023-01-02T17:42:02.098Z,15.90
2023-01-02T17:47:48.217Z,16.43
2023-01-02T17:52:31.197Z,19.30
2023-01-02T17:57:38.991Z,16.53
2023-01-02T18:02:45.368Z,14.53
2023-01-02T18:07:49.163Z,14.90
2023-01-02T18:12:52.597Z,14.83
2023-01-02T18:18:00.646Z,13.53
2023-01-02T18:23:13.167Z,13.03
2023-01-02T18:28:24.221Z,14.70
2023-01-02T18:33:29.573Z,14.00
2023-01-02T18:38:38.373Z,13.97
2023-01-02T18:43:42.267Z,12.40
2023-01-02T18:48:47.731Z,15.07
2023-01-02T18:53:53.213Z,14.27
2023-01-02T18:59:03.297Z,14.90
2023-01-02T19:04:27.383Z,14.73
2023-01-02T19:09:35.639Z,16.60
2023-01-02T19:14:41.840Z,17.00
2023-01-02T19:19:49.704Z,18.67
2023-01-02T19:24:53.297Z,19.37
2023-01-02T19:29:57.019Z,16.63
2023-01-02T19:35:11.784Z,16.83
2023-01-02T19:40:19.705Z,16.40
2023-01-02T19:45:25.617Z,15.97
2023-01-02T19:50:30.550Z,17.07
2023-01-02T19:55:36.654Z,16.40
2023-01-02T20:00:40.257Z,14.83
2023-01-02T20:05:45.172Z,16.53
2023-01-02T20:10:48.958Z,15.43
2023-01-02T20:15:52.712Z,13.63
2023-01-02T20:20:57.857Z,13.93
2023-01-02T20:26:01.658Z,13.93
2023-01-02T20:31:05.522Z,14.83
2023-01-02T20:36:13.809Z,13.43
2023-01-02T20:41:17.525Z,14.07
2023-01-02T20:46:21.070Z,15.17
2023-01-02T20:51:25.873Z,15.00
2023-01-02T20:56:30.473Z,14.17
2023-01-02T21:01:34.070Z,13.67
2023-01-02T21:06:39.378Z,13.40
2023-01-02T21:11:42.931Z,13.90
2023-01-02T21:16:46.342Z,12.33
2023-01-02T21:21:52.147Z,15.57
2023-01-02T21:26:55.855Z,15.30
2023-01-02T21:31:59.319Z,17.33
2023-01-02T21:37:04.514Z,19.10
2023-01-02T21:42:17.085Z,13.20
2023-01-02T21:47:20.499Z,15.23
2023-01-02T21:52:25.419Z,16.23
2023-01-02T21:57:54.158Z,15.03
2023-01-02T22:02:53.846Z,15.57
2023-01-02T22:07:58.754Z,15.77
2023-01-02T22:13:02.180Z,17.50
2023-01-02T22:18:05.762Z,15.00
2023-01-02T22:23:10.587Z,15.97
2023-01-02T22:28:14.025Z,16.93
2023-01-02T22:33:17.627Z,15.53
2023-01-02T22:38:22.463Z,22.70
2023-01-02T22:43:26.166Z,16.77
2023-01-02T22:48:33.577Z,16.10
2023-01-02T22:53:39.570Z,18.87
2023-01-02T22:58:43.621Z,19.73
2023-01-02T23:03:48.644Z,18.50
2023-01-02T23:08:54.668Z,15.87
2023-01-02T23:13:58.058Z,19.53
2023-01-02T23:19:17.579Z,28.77
2023-01-02T23:24:25.487Z,19.60
2023-01-02T23:29:29.848Z,22.07
2023-01-02T23:34:33.332Z,21.57
2023-01-02T23:39:38.466Z,22.47
2023-01-02T23:44:42.223Z,18.37
2023-01-02T23:49:45.589Z,19.07
2023-01-02T23:54:50.415Z,20.97
2023-01-02T23:59:54.087Z,21.57
